sensor_id;sensor_type;location;lat;lon;timestamp;pressure;altitude;pressure_sealevel;temperature
77331;BMP280;66405;48.328;7.820;2023-05-10T00:00:48;99422.19;;;16.10
77331;BMP280;66405;48.328;7.820;2023-05-10T00:03:48;99421.94;;;16.08
77331;BMP280;66405;48.328;7.820;2023-05-10T00:06:49;99423.44;;;16.03
77331;BMP280;66405;48.328;7.820;2023-05-10T00:09:49;99431.84;;;15.99
77331;BMP280;66405;48.328;7.820;2023-05-10T00:12:50;99428.34;;;15.99
77331;BMP280;66405;48.328;7.820;2023-05-10T00:15:50;99422.91;;;15.99
77331;BMP280;66405;48.328;7.820;2023-05-10T00:18:53;99433.06;;;15.98
77331;BMP280;66405;48.328;7.820;2023-05-10T00:21:54;99433.34;;;16.00
77331;BMP280;66405;48.328;7.820;2023-05-10T00:24:54;99425.88;;;16.01
77331;BMP280;66405;48.328;7.820;2023-05-10T00:27:55;99430.09;;;16.02
77331;BMP280;66405;48.328;7.820;2023-05-10T00:30:57;99430.34;;;16.04
77331;BMP280;66405;48.328;7.820;2023-05-10T00:33:57;99421.22;;;16.07
77331;BMP280;66405;48.328;7.820;2023-05-10T00:36:58;99426.41;;;16.11
77331;BMP280;66405;48.328;7.820;2023-05-10T00:39:58;99428.13;;;16.14
77331;BMP280;66405;48.328;7.820;2023-05-10T00:42:59;99422.19;;;16.15
77331;BMP280;66405;48.328;7.820;2023-05-10T00:46:00;99420.69;;;16.14
77331;BMP280;66405;48.328;7.820;2023-05-10T00:49:01;99419.44;;;16.15
77331;BMP280;66405;48.328;7.820;2023-05-10T00:52:03;99422.91;;;16.16
77331;BMP280;66405;48.328;7.820;2023-05-10T00:55:05;99417.00;;;16.17
77331;BMP280;66405;48.328;7.820;2023-05-10T00:58:06;99402.09;;;16.18
77331;BMP280;66405;48.328;7.820;2023-05-10T01:01:08;99408.31;;;16.19
77331;BMP280;66405;48.328;7.820;2023-05-10T01:04:10;99408.53;;;16.21
77331;BMP280;66405;48.328;7.820;2023-05-10T01:07:12;99403.34;;;16.23
77331;BMP280;66405;48.328;7.820;2023-05-10T01:10:13;99406.56;;;16.22
77331;BMP280;66405;48.328;7.820;2023-05-10T01:13:20;99402.59;;;16.17
77331;BMP280;66405;48.328;7.820;2023-05-10T01:16:24;99416.72;;;16.15
77331;BMP280;66405;48.328;7.820;2023-05-10T01:19:28;99422.91;;;16.16
77331;BMP280;66405;48.328;7.820;2023-05-10T01:29:22;99424.41;;;16.17
77331;BMP280;66405;48.328;7.820;2023-05-10T01:36:21;99419.94;;;16.14
77331;BMP280;66405;48.328;7.820;2023-05-10T01:39:59;99421.69;;;16.11
77331;BMP280;66405;48.328;7.820;2023-05-10T01:43:08;99425.91;;;16.12
77331;BMP280;66405;48.328;7.820;2023-05-10T01:46:17;99424.41;;;16.11
77331;BMP280;66405;48.328;7.820;2023-05-10T01:49:31;99419.94;;;16.08
77331;BMP280;66405;48.328;7.820;2023-05-10T01:52:34;99437.28;;;16.05
77331;BMP280;66405;48.328;7.820;2023-05-10T01:55:44;99431.84;;;15.99
77331;BMP280;66405;48.328;7.820;2023-05-10T01:58:47;99423.91;;;15.96
77331;BMP280;66405;48.328;7.820;2023-05-10T02:01:49;99432.56;;;15.94
77331;BMP280;66405;48.328;7.820;2023-05-10T02:04:53;99435.78;;;15.93
77331;BMP280;66405;48.328;7.820;2023-05-10T02:07:55;99432.31;;;15.92
77331;BMP280;66405;48.328;7.820;2023-05-10T02:10:58;99435.06;;;15.92
77331;BMP280;66405;48.328;7.820;2023-05-10T02:14:00;99444.47;;;15.91
77331;BMP280;66405;48.328;7.820;2023-05-10T02:17:04;99445.72;;;15.90
77331;BMP280;66405;48.328;7.820;2023-05-10T02:20:06;99448.94;;;15.89
77331;BMP280;66405;48.328;7.820;2023-05-10T02:23:08;99450.16;;;15.88
77331;BMP280;66405;48.328;7.820;2023-05-10T02:26:10;99446.69;;;15.87
77331;BMP280;66405;48.328;7.820;2023-05-10T02:29:12;99456.84;;;15.87
77331;BMP280;66405;48.328;7.820;2023-05-10T02:32:13;99457.09;;;15.89
77331;BMP280;66405;48.328;7.820;2023-05-10T02:35:14;99450.16;;;15.88
77331;BMP280;66405;48.328;7.820;2023-05-10T02:38:16;99457.34;;;15.85
77331;BMP280;66405;48.328;7.820;2023-05-10T02:41:19;99450.66;;;15.80
77331;BMP280;66405;48.328;7.820;2023-05-10T02:44:22;99449.63;;;15.78
77331;BMP280;66405;48.328;7.820;2023-05-10T02:47:23;99446.91;;;15.78
77331;BMP280;66405;48.328;7.820;2023-05-10T02:50:25;99455.09;;;15.78
77331;BMP280;66405;48.328;7.820;2023-05-10T02:53:31;99451.63;;;15.77
77331;BMP280;66405;48.328;7.820;2023-05-10T02:56:35;99460.28;;;15.76
77331;BMP280;66405;48.328;7.820;2023-05-10T02:59:36;99455.09;;;15.78
77331;BMP280;66405;48.328;7.820;2023-05-10T03:02:37;99476.88;;;15.78
77331;BMP280;66405;48.328;7.820;2023-05-10T03:05:37;99480.09;;;15.76
77331;BMP280;66405;48.328;7.820;2023-05-10T03:08:38;99481.34;;;15.75
77331;BMP280;66405;48.328;7.820;2023-05-10T03:11:48;99479.13;;;15.74
77331;BMP280;66405;48.328;7.820;2023-05-10T03:15:07;99469.72;;;15.69
77331;BMP280;66405;48.328;7.820;2023-05-10T03:18:28;99471.69;;;15.69
77331;BMP280;66405;48.328;7.820;2023-05-10T03:21:29;99473.88;;;15.70
77331;BMP280;66405;48.328;7.820;2023-05-10T03:24:34;99472.16;;;15.67
77331;BMP280;66405;48.328;7.820;2023-05-10T03:27:36;99479.34;;;15.64
77331;BMP280;66405;48.328;7.820;2023-05-10T03:30:40;99482.78;;;15.65
77331;BMP280;66405;48.328;7.820;2023-05-10T03:33:51;99472.63;;;15.65
77331;BMP280;66405;48.328;7.820;2023-05-10T03:36:57;99471.16;;;15.64
77331;BMP280;66405;48.328;7.820;2023-05-10T03:40:02;99473.66;;;15.62
77331;BMP280;66405;48.328;7.820;2023-05-10T03:43:06;99477.09;;;15.63
77331;BMP280;66405;48.328;7.820;2023-05-10T03:46:07;99473.38;;;15.60
77331;BMP280;66405;48.328;7.820;2023-05-10T03:49:08;99472.13;;;15.56
77331;BMP280;66405;48.328;7.820;2023-05-10T03:52:10;99481.00;;;15.51
77331;BMP280;66405;48.328;7.820;2023-05-10T03:55:11;99472.34;;;15.46
77331;BMP280;66405;48.328;7.820;2023-05-10T03:58:12;99468.63;;;15.44
77331;BMP280;66405;48.328;7.820;2023-05-10T04:01:12;99474.31;;;15.40
77331;BMP280;66405;48.328;7.820;2023-05-10T04:04:13;99477.50;;;15.39
77331;BMP280;66405;48.328;7.820;2023-05-10T04:07:14;99480.72;;;15.37
77331;BMP280;66405;48.328;7.820;2023-05-10T04:10:14;99476.25;;;15.34
77331;BMP280;66405;48.328;7.820;2023-05-10T04:13:16;99483.19;;;15.35
77331;BMP280;66405;48.328;7.820;2023-05-10T04:16:17;99485.41;;;15.37
77331;BMP280;66405;48.328;7.820;2023-05-10T04:19:17;99488.88;;;15.37
77331;BMP280;66405;48.328;7.820;2023-05-10T04:22:17;99493.38;;;15.40
77331;BMP280;66405;48.328;7.820;2023-05-10T04:25:18;99489.66;;;15.43
77331;BMP280;66405;48.328;7.820;2023-05-10T04:28:18;99483.25;;;15.46
77331;BMP280;66405;48.328;7.820;2023-05-10T04:31:19;99480.00;;;15.48
77331;BMP280;66405;48.328;7.820;2023-05-10T04:34:20;99480.78;;;15.48
77331;BMP280;66405;48.328;7.820;2023-05-10T04:37:21;99480.56;;;15.52
77331;BMP280;66405;48.328;7.820;2023-05-10T04:40:23;99487.47;;;15.53
77331;BMP280;66405;48.328;7.820;2023-05-10T04:43:23;99494.41;;;15.54
77331;BMP280;66405;48.328;7.820;2023-05-10T04:46:23;99494.44;;;15.60
77331;BMP280;66405;48.328;7.820;2023-05-10T04:49:26;99490.72;;;15.63
77331;BMP280;66405;48.328;7.820;2023-05-10T04:52:26;99491.22;;;15.67
77331;BMP280;66405;48.328;7.820;2023-05-10T04:55:28;99495.66;;;15.70
77331;BMP280;66405;48.328;7.820;2023-05-10T04:58:28;99496.94;;;15.75
77331;BMP280;66405;48.328;7.820;2023-05-10T05:01:30;99506.13;;;15.77
77331;BMP280;66405;48.328;7.820;2023-05-10T05:04:30;99510.34;;;15.78
77331;BMP280;66405;48.328;7.820;2023-05-10T05:07:31;99513.78;;;15.79
77331;BMP280;66405;48.328;7.820;2023-05-10T05:10:32;99507.13;;;15.80
77331;BMP280;66405;48.328;7.820;2023-05-10T05:13:32;99503.41;;;15.77
77331;BMP280;66405;48.328;7.820;2023-05-10T05:16:32;99510.81;;;15.77
77331;BMP280;66405;48.328;7.820;2023-05-10T05:19:33;99521.69;;;15.77
77331;BMP280;66405;48.328;7.820;2023-05-10T05:22:35;99524.44;;;15.77
77331;BMP280;66405;48.328;7.820;2023-05-10T05:25:36;99526.41;;;15.76
77331;BMP280;66405;48.328;7.820;2023-05-10T05:28:38;99531.66;;;15.80
77331;BMP280;66405;48.328;7.820;2023-05-10T05:31:39;99542.28;;;15.83
77331;BMP280;66405;48.328;7.820;2023-05-10T05:34:39;99544.31;;;15.89
77331;BMP280;66405;48.328;7.820;2023-05-10T05:37:40;99544.78;;;15.93
77331;BMP280;66405;48.328;7.820;2023-05-10T05:40:40;99552.25;;;15.98
77331;BMP280;66405;48.328;7.820;2023-05-10T05:43:41;99555.72;;;16.04
77331;BMP280;66405;48.328;7.820;2023-05-10T05:46:43;99567.38;;;16.10
77331;BMP280;66405;48.328;7.820;2023-05-10T05:49:44;99567.16;;;16.14
77331;BMP280;66405;48.328;7.820;2023-05-10T05:52:45;99568.38;;;16.13
77331;BMP280;66405;48.328;7.820;2023-05-10T05:55:55;99570.59;;;16.09
77331;BMP280;66405;48.328;7.820;2023-05-10T05:58:56;99567.63;;;16.07
77331;BMP280;66405;48.328;7.820;2023-05-10T06:01:58;99567.88;;;16.03
77331;BMP280;66405;48.328;7.820;2023-05-10T06:04:59;99563.66;;;16.08
77331;BMP280;66405;48.328;7.820;2023-05-10T06:07:59;99578.53;;;16.12
77331;BMP280;66405;48.328;7.820;2023-05-10T06:11:04;99571.13;;;16.18
77331;BMP280;66405;48.328;7.820;2023-05-10T06:14:06;99576.09;;;16.26
77331;BMP280;66405;48.328;7.820;2023-05-10T06:17:09;99577.81;;;16.29
77331;BMP280;66405;48.328;7.820;2023-05-10T06:20:10;99583.28;;;16.34
77331;BMP280;66405;48.328;7.820;2023-05-10T06:23:11;99587.00;;;16.43
77331;BMP280;66405;48.328;7.820;2023-05-10T06:26:11;99586.25;;;16.42
77331;BMP280;66405;48.328;7.820;2023-05-10T06:29:12;99591.47;;;16.40
77331;BMP280;66405;48.328;7.820;2023-05-10T06:32:12;99588.22;;;16.42
77331;BMP280;66405;48.328;7.820;2023-05-10T06:35:13;99595.72;;;16.47
77331;BMP280;66405;48.328;7.820;2023-05-10T06:38:15;99603.88;;;16.58
77331;BMP280;66405;48.328;7.820;2023-05-10T06:41:19;99603.66;;;16.67
77331;BMP280;66405;48.328;7.820;2023-05-10T06:44:20;99602.41;;;16.80
77331;BMP280;66405;48.328;7.820;2023-05-10T06:47:21;99600.19;;;16.90
77331;BMP280;66405;48.328;7.820;2023-05-10T06:50:22;99596.19;;;17.02
77331;BMP280;66405;48.328;7.820;2023-05-10T06:53:24;99597.66;;;17.14
77331;BMP280;66405;48.328;7.820;2023-05-10T06:56:28;99604.56;;;17.21
77331;BMP280;66405;48.328;7.820;2023-05-10T06:59:28;99601.59;;;17.30
77331;BMP280;66405;48.328;7.820;2023-05-10T07:02:31;99602.34;;;17.31
77331;BMP280;66405;48.328;7.820;2023-05-10T07:05:33;99595.88;;;17.34
77331;BMP280;66405;48.328;7.820;2023-05-10T07:08:38;99600.06;;;17.46
77331;BMP280;66405;48.328;7.820;2023-05-10T07:11:39;99601.78;;;17.49
77331;BMP280;66405;48.328;7.820;2023-05-10T07:14:39;99606.22;;;17.52
77331;BMP280;66405;48.328;7.820;2023-05-10T07:17:42;99598.06;;;17.47
77331;BMP280;66405;48.328;7.820;2023-05-10T07:20:43;99603.28;;;17.50
77331;BMP280;66405;48.328;7.820;2023-05-10T07:23:43;99607.00;;;17.53
77331;BMP280;66405;48.328;7.820;2023-05-10T07:26:44;99596.78;;;17.53
77331;BMP280;66405;48.328;7.820;2023-05-10T07:29:44;99601.50;;;17.58
77331;BMP280;66405;48.328;7.820;2023-05-10T07:32:47;99603.72;;;17.66
77331;BMP280;66405;48.328;7.820;2023-05-10T07:35:47;99607.94;;;17.67
77331;BMP280;66405;48.328;7.820;2023-05-10T07:38:50;99610.16;;;17.68
77331;BMP280;66405;48.328;7.820;2023-05-10T07:41:51;99609.84;;;17.77
77331;BMP280;66405;48.328;7.820;2023-05-10T07:44:51;99619.28;;;17.82
77331;BMP280;66405;48.328;7.820;2023-05-10T07:47:52;99621.81;;;17.80
77331;BMP280;66405;48.328;7.820;2023-05-10T07:50:52;99622.25;;;17.84
77331;BMP280;66405;48.328;7.820;2023-05-10T07:53:53;99623.19;;;17.92
77331;BMP280;66405;48.328;7.820;2023-05-10T07:56:53;99623.63;;;18.14
77331;BMP280;66405;48.328;7.820;2023-05-10T07:59:56;99628.91;;;18.36
77331;BMP280;66405;48.328;7.820;2023-05-10T08:02:58;99626.72;;;18.65
77331;BMP280;66405;48.328;7.820;2023-05-10T08:05:59;99628.75;;;18.89
77331;BMP280;66405;48.328;7.820;2023-05-10T08:09:01;99623.53;;;19.16
77331;BMP280;66405;48.328;7.820;2023-05-10T08:12:04;99614.34;;;19.57
77331;BMP280;66405;48.328;7.820;2023-05-10T08:15:08;99613.81;;;20.16
77331;BMP280;66405;48.328;7.820;2023-05-10T08:18:08;99612.53;;;20.49
77331;BMP280;66405;48.328;7.820;2023-05-10T08:21:09;99606.28;;;20.49
77331;BMP280;66405;48.328;7.820;2023-05-10T08:24:12;99603.38;;;20.27
77331;BMP280;66405;48.328;7.820;2023-05-10T08:27:15;99613.06;;;19.96
77331;BMP280;66405;48.328;7.820;2023-05-10T08:30:18;99616.53;;;19.59
77331;BMP280;66405;48.328;7.820;2023-05-10T08:33:20;99622.25;;;19.17
77331;BMP280;66405;48.328;7.820;2023-05-10T08:36:22;99610.06;;;18.93
77331;BMP280;66405;48.328;7.820;2023-05-10T08:39:24;99627.09;;;18.80
77331;BMP280;66405;48.328;7.820;2023-05-10T08:42:28;99632.91;;;18.71
77331;BMP280;66405;48.328;7.820;2023-05-10T08:45:32;99624.63;;;18.77
77331;BMP280;66405;48.328;7.820;2023-05-10T08:48:35;99628.53;;;18.87
77331;BMP280;66405;48.328;7.820;2023-05-10T08:51:40;99627.78;;;18.87
77331;BMP280;66405;48.328;7.820;2023-05-10T08:54:42;99631.94;;;18.69
77331;BMP280;66405;48.328;7.820;2023-05-10T08:57:44;99648.50;;;18.46
77331;BMP280;66405;48.328;7.820;2023-05-10T09:00:45;99647.91;;;18.23
77331;BMP280;66405;48.328;7.820;2023-05-10T09:03:46;99650.00;;;18.00
77331;BMP280;66405;48.328;7.820;2023-05-10T09:06:50;99645.84;;;17.93
77331;BMP280;66405;48.328;7.820;2023-05-10T09:09:53;99648.31;;;17.97
77331;BMP280;66405;48.328;7.820;2023-05-10T09:12:56;99646.75;;;18.07
77331;BMP280;66405;48.328;7.820;2023-05-10T09:15:57;99650.88;;;18.25
77331;BMP280;66405;48.328;7.820;2023-05-10T09:19:00;99653.69;;;18.55
77331;BMP280;66405;48.328;7.820;2023-05-10T09:22:01;99660.97;;;18.77
77331;BMP280;66405;48.328;7.820;2023-05-10T09:25:10;99651.84;;;18.94
77331;BMP280;66405;48.328;7.820;2023-05-10T09:28:13;99665.31;;;18.92
77331;BMP280;66405;48.328;7.820;2023-05-10T09:31:16;99670.75;;;18.97
77331;BMP280;66405;48.328;7.820;2023-05-10T09:34:18;99673.59;;;19.35
77331;BMP280;66405;48.328;7.820;2023-05-10T09:37:29;99670.94;;;19.73
77331;BMP280;66405;48.328;7.820;2023-05-10T09:40:30;99667.94;;;19.96
77331;BMP280;66405;48.328;7.820;2023-05-10T09:43:37;99668.19;;;20.31
77331;BMP280;66405;48.328;7.820;2023-05-10T09:46:39;99679.31;;;20.71
77331;BMP280;66405;48.328;7.820;2023-05-10T09:49:41;99679.66;;;20.80
77331;BMP280;66405;48.328;7.820;2023-05-10T09:52:59;99675.13;;;20.96
77331;BMP280;66405;48.328;7.820;2023-05-10T09:55:59;99672.16;;;20.81
77331;BMP280;66405;48.328;7.820;2023-05-10T09:59:03;99661.09;;;20.54
77331;BMP280;66405;48.328;7.820;2023-05-10T10:02:05;99666.13;;;20.18
77331;BMP280;66405;48.328;7.820;2023-05-10T10:05:08;99660.66;;;19.99
77331;BMP280;66405;48.328;7.820;2023-05-10T10:08:12;99674.66;;;20.33
77331;BMP280;66405;48.328;7.820;2023-05-10T10:11:14;99680.03;;;20.58
77331;BMP280;66405;48.328;7.820;2023-05-10T10:14:21;99678.91;;;20.48
77331;BMP280;66405;48.328;7.820;2023-05-10T10:17:24;99674.34;;;20.37
77331;BMP280;66405;48.328;7.820;2023-05-10T10:20:28;99681.84;;;20.17
77331;BMP280;66405;48.328;7.820;2023-05-10T10:23:29;99681.41;;;19.94
77331;BMP280;66405;48.328;7.820;2023-05-10T10:26:29;99679.13;;;19.98
77331;BMP280;66405;48.328;7.820;2023-05-10T10:29:47;99673.22;;;20.26
77331;BMP280;66405;48.328;7.820;2023-05-10T10:36:20;99670.47;;;21.05
77331;BMP280;66405;48.328;7.820;2023-05-10T10:39:24;99679.66;;;21.21
77331;BMP280;66405;48.328;7.820;2023-05-10T10:42:47;99673.63;;;21.49
77331;BMP280;66405;48.328;7.820;2023-05-10T10:49:14;99669.50;;;22.24
77331;BMP280;66405;48.328;7.820;2023-05-10T10:52:45;99668.69;;;22.58
77331;BMP280;66405;48.328;7.820;2023-05-10T10:55:47;99663.72;;;22.86
77331;BMP280;66405;48.328;7.820;2023-05-10T10:58:50;99671.28;;;22.93
77331;BMP280;66405;48.328;7.820;2023-05-10T11:01:56;99669.97;;;23.15
77331;BMP280;66405;48.328;7.820;2023-05-10T11:04:56;99666.72;;;23.32
77331;BMP280;66405;48.328;7.820;2023-05-10T11:08:00;99665.31;;;23.39
77331;BMP280;66405;48.328;7.820;2023-05-10T11:11:07;99666.69;;;22.88
77331;BMP280;66405;48.328;7.820;2023-05-10T11:14:08;99672.41;;;22.40
77331;BMP280;66405;48.328;7.820;2023-05-10T11:17:27;99663.00;;;22.35
77331;BMP280;66405;48.328;7.820;2023-05-10T11:20:39;99662.88;;;22.70
77331;BMP280;66405;48.328;7.820;2023-05-10T11:26:50;99655.78;;;23.11
77331;BMP280;66405;48.328;7.820;2023-05-10T11:29:54;99651.91;;;23.06
77331;BMP280;66405;48.328;7.820;2023-05-10T11:32:54;99654.22;;;23.23
77331;BMP280;66405;48.328;7.820;2023-05-10T11:38:57;99656.81;;;23.29
77331;BMP280;66405;48.328;7.820;2023-05-10T11:41:58;99658.06;;;23.28
77331;BMP280;66405;48.328;7.820;2023-05-10T11:45:01;99646.13;;;23.25
77331;BMP280;66405;48.328;7.820;2023-05-10T11:48:02;99649.88;;;23.51
77331;BMP280;66405;48.328;7.820;2023-05-10T11:51:07;99654.84;;;23.45
77331;BMP280;66405;48.328;7.820;2023-05-10T11:54:10;99648.00;;;23.30
77331;BMP280;66405;48.328;7.820;2023-05-10T12:00:14;99651.47;;;23.23
77331;BMP280;66405;48.328;7.820;2023-05-10T12:03:18;99653.47;;;22.94
77331;BMP280;66405;48.328;7.820;2023-05-10T12:06:21;99655.44;;;22.78
77331;BMP280;66405;48.328;7.820;2023-05-10T12:09:22;99653.69;;;22.67
77331;BMP280;66405;48.328;7.820;2023-05-10T12:12:24;99642.38;;;22.50
77331;BMP280;66405;48.328;7.820;2023-05-10T12:15:28;99653.44;;;22.36
77331;BMP280;66405;48.328;7.820;2023-05-10T12:18:29;99654.59;;;22.41
77331;BMP280;66405;48.328;7.820;2023-05-10T12:21:31;99662.34;;;22.50
77331;BMP280;66405;48.328;7.820;2023-05-10T12:24:35;99659.81;;;22.52
77331;BMP280;66405;48.328;7.820;2023-05-10T12:27:38;99662.56;;;22.52
77331;BMP280;66405;48.328;7.820;2023-05-10T12:30:40;99660.38;;;22.51
77331;BMP280;66405;48.328;7.820;2023-05-10T12:33:42;99657.72;;;22.66
77331;BMP280;66405;48.328;7.820;2023-05-10T12:36:43;99660.97;;;23.14
77331;BMP280;66405;48.328;7.820;2023-05-10T12:39:45;99656.97;;;23.75
77331;BMP280;66405;48.328;7.820;2023-05-10T12:42:47;99645.25;;;24.21
77331;BMP280;66405;48.328;7.820;2023-05-10T12:45:50;99643.75;;;24.27
77331;BMP280;66405;48.328;7.820;2023-05-10T12:48:50;99643.16;;;24.67
77331;BMP280;66405;48.328;7.820;2023-05-10T12:51:57;99645.53;;;24.71
77331;BMP280;66405;48.328;7.820;2023-05-10T12:54:59;99643.91;;;24.53
77331;BMP280;66405;48.328;7.820;2023-05-10T12:58:03;99639.53;;;24.42
77331;BMP280;66405;48.328;7.820;2023-05-10T13:01:06;99638.56;;;24.47
77331;BMP280;66405;48.328;7.820;2023-05-10T13:04:08;99634.88;;;24.67
77331;BMP280;66405;48.328;7.820;2023-05-10T13:07:08;99637.84;;;24.54
77331;BMP280;66405;48.328;7.820;2023-05-10T13:10:09;99638.56;;;24.62
77331;BMP280;66405;48.328;7.820;2023-05-10T13:13:10;99638.91;;;25.30
77331;BMP280;66405;48.328;7.820;2023-05-10T13:16:12;99636.53;;;26.27
77331;BMP280;66405;48.328;7.820;2023-05-10T13:19:16;99632.06;;;26.84
77331;BMP280;66405;48.328;7.820;2023-05-10T13:22:17;99621.84;;;27.68
77331;BMP280;66405;48.328;7.820;2023-05-10T13:25:19;99622.38;;;27.57
77331;BMP280;66405;48.328;7.820;2023-05-10T13:28:22;99616.38;;;27.51
77331;BMP280;66405;48.328;7.820;2023-05-10T13:31:22;99611.59;;;27.71
77331;BMP280;66405;48.328;7.820;2023-05-10T13:34:23;99621.63;;;28.03
77331;BMP280;66405;48.328;7.820;2023-05-10T13:37:24;99620.72;;;27.81
77331;BMP280;66405;48.328;7.820;2023-05-10T13:40:26;99620.13;;;27.46
77331;BMP280;66405;48.328;7.820;2023-05-10T13:43:28;99617.44;;;27.28
77331;BMP280;66405;48.328;7.820;2023-05-10T13:46:29;99613.75;;;26.99
77331;BMP280;66405;48.328;7.820;2023-05-10T13:49:35;99617.22;;;26.89
77331;BMP280;66405;48.328;7.820;2023-05-10T13:52:36;99613.47;;;26.60
77331;BMP280;66405;48.328;7.820;2023-05-10T13:55:41;99624.50;;;26.50
77331;BMP280;66405;48.328;7.820;2023-05-10T13:58:41;99624.00;;;26.26
77331;BMP280;66405;48.328;7.820;2023-05-10T14:01:44;99623.41;;;25.85
77331;BMP280;66405;48.328;7.820;2023-05-10T14:04:46;99624.06;;;25.43
77331;BMP280;66405;48.328;7.820;2023-05-10T14:07:46;99615.84;;;24.79
77331;BMP280;66405;48.328;7.820;2023-05-10T14:10:47;99613.41;;;24.20
77331;BMP280;66405;48.328;7.820;2023-05-10T14:13:48;99624.75;;;23.70
77331;BMP280;66405;48.328;7.820;2023-05-10T14:16:49;99626.34;;;23.34
77331;BMP280;66405;48.328;7.820;2023-05-10T14:19:49;99624.66;;;22.95
77331;BMP280;66405;48.328;7.820;2023-05-10T14:22:49;99626.50;;;22.63
77331;BMP280;66405;48.328;7.820;2023-05-10T14:25:51;99627.50;;;22.24
77331;BMP280;66405;48.328;7.820;2023-05-10T14:28:51;99637.19;;;22.04
77331;BMP280;66405;48.328;7.820;2023-05-10T14:31:52;99635.44;;;22.14
77331;BMP280;66405;48.328;7.820;2023-05-10T14:34:54;99638.09;;;22.20
77331;BMP280;66405;48.328;7.820;2023-05-10T14:37:55;99637.53;;;22.00
77331;BMP280;66405;48.328;7.820;2023-05-10T14:40:55;99629.19;;;21.71
77331;BMP280;66405;48.328;7.820;2023-05-10T14:43:56;99633.31;;;21.65
77331;BMP280;66405;48.328;7.820;2023-05-10T14:46:56;99638.69;;;21.70
77331;BMP280;66405;48.328;7.820;2023-05-10T14:49:57;99634.56;;;21.77
77331;BMP280;66405;48.328;7.820;2023-05-10T14:55:59;99628.44;;;21.71
77331;BMP280;66405;48.328;7.820;2023-05-10T14:59:01;99621.69;;;21.59
77331;BMP280;66405;48.328;7.820;2023-05-10T15:02:02;99622.28;;;21.44
77331;BMP280;66405;48.328;7.820;2023-05-10T15:05:04;99626.63;;;21.12
77331;BMP280;66405;48.328;7.820;2023-05-10T15:08:05;99642.38;;;20.72
77331;BMP280;66405;48.328;7.820;2023-05-10T15:11:06;99653.53;;;20.09
77331;BMP280;66405;48.328;7.820;2023-05-10T15:14:06;99652.03;;;19.51
77331;BMP280;66405;48.328;7.820;2023-05-10T15:17:06;99669.06;;;19.19
77331;BMP280;66405;48.328;7.820;2023-05-10T15:20:12;99667.00;;;19.00
77331;BMP280;66405;48.328;7.820;2023-05-10T15:23:12;99674.34;;;18.87
77331;BMP280;66405;48.328;7.820;2023-05-10T15:26:14;99682.22;;;18.65
77331;BMP280;66405;48.328;7.820;2023-05-10T15:29:16;99678.88;;;18.42
77331;BMP280;66405;48.328;7.820;2023-05-10T15:32:19;99679.97;;;18.22
77331;BMP280;66405;48.328;7.820;2023-05-10T15:35:20;99670.09;;;18.14
77331;BMP280;66405;48.328;7.820;2023-05-10T15:38:23;99677.03;;;18.15
77331;BMP280;66405;48.328;7.820;2023-05-10T15:41:23;99681.97;;;18.27
77331;BMP280;66405;48.328;7.820;2023-05-10T15:44:24;99694.31;;;18.40
77331;BMP280;66405;48.328;7.820;2023-05-10T15:47:26;99691.50;;;18.51
77331;BMP280;66405;48.328;7.820;2023-05-10T15:50:27;99696.94;;;18.57
77331;BMP280;66405;48.328;7.820;2023-05-10T15:53:27;99691.47;;;18.57
77331;BMP280;66405;48.328;7.820;2023-05-10T15:56:28;99693.38;;;18.68
77331;BMP280;66405;48.328;7.820;2023-05-10T15:59:29;99697.16;;;18.95
77331;BMP280;66405;48.328;7.820;2023-05-10T16:02:30;99700.84;;;19.28
77331;BMP280;66405;48.328;7.820;2023-05-10T16:05:30;99699.72;;;19.67
77331;BMP280;66405;48.328;7.820;2023-05-10T16:08:32;99695.88;;;20.78
77331;BMP280;66405;48.328;7.820;2023-05-10T16:11:35;99700.66;;;22.40
77331;BMP280;66405;48.328;7.820;2023-05-10T16:14:35;99697.94;;;22.69
77331;BMP280;66405;48.328;7.820;2023-05-10T16:17:37;99701.28;;;22.68
77331;BMP280;66405;48.328;7.820;2023-05-10T16:20:38;99691.44;;;23.45
77331;BMP280;66405;48.328;7.820;2023-05-10T16:23:38;99691.81;;;24.17
77331;BMP280;66405;48.328;7.820;2023-05-10T16:26:39;99685.28;;;27.00
77331;BMP280;66405;48.328;7.820;2023-05-10T16:29:40;99687.16;;;28.94
77331;BMP280;66405;48.328;7.820;2023-05-10T16:32:40;99690.38;;;29.51
77331;BMP280;66405;48.328;7.820;2023-05-10T16:35:40;99676.88;;;28.09
77331;BMP280;66405;48.328;7.820;2023-05-10T16:38:41;99680.50;;;26.83
77331;BMP280;66405;48.328;7.820;2023-05-10T16:41:41;99691.72;;;26.08
77331;BMP280;66405;48.328;7.820;2023-05-10T16:44:42;99685.13;;;25.45
77331;BMP280;66405;48.328;7.820;2023-05-10T16:47:42;99683.44;;;24.94
77331;BMP280;66405;48.328;7.820;2023-05-10T16:50:45;99680.00;;;24.47
77331;BMP280;66405;48.328;7.820;2023-05-10T16:53:45;99683.31;;;24.07
77331;BMP280;66405;48.328;7.820;2023-05-10T16:56:46;99684.19;;;23.79
77331;BMP280;66405;48.328;7.820;2023-05-10T16:59:46;99688.72;;;23.61
77331;BMP280;66405;48.328;7.820;2023-05-10T17:02:47;99684.06;;;23.40
77331;BMP280;66405;48.328;7.820;2023-05-10T17:05:50;99692.53;;;24.09
77331;BMP280;66405;48.328;7.820;2023-05-10T17:08:50;99687.22;;;27.89
77331;BMP280;66405;48.328;7.820;2023-05-10T17:11:51;99695.72;;;30.88
77331;BMP280;66405;48.328;7.820;2023-05-10T17:14:51;99687.88;;;31.79
77331;BMP280;66405;48.328;7.820;2023-05-10T17:17:52;99696.03;;;31.75
77331;BMP280;66405;48.328;7.820;2023-05-10T17:20:52;99692.50;;;31.74
77331;BMP280;66405;48.328;7.820;2023-05-10T17:23:53;99690.53;;;31.89
77331;BMP280;66405;48.328;7.820;2023-05-10T17:26:54;99688.47;;;32.27
77331;BMP280;66405;48.328;7.820;2023-05-10T17:29:56;99693.72;;;33.39
77331;BMP280;66405;48.328;7.820;2023-05-10T17:33:00;99688.66;;;35.16
77331;BMP280;66405;48.328;7.820;2023-05-10T17:36:01;99692.22;;;37.00
77331;BMP280;66405;48.328;7.820;2023-05-10T17:39:01;99683.38;;;36.30
77331;BMP280;66405;48.328;7.820;2023-05-10T17:42:02;99686.31;;;34.17
77331;BMP280;66405;48.328;7.820;2023-05-10T17:45:03;99695.00;;;32.06
77331;BMP280;66405;48.328;7.820;2023-05-10T17:48:06;99690.38;;;30.47
77331;BMP280;66405;48.328;7.820;2023-05-10T17:51:06;99692.00;;;30.29
77331;BMP280;66405;48.328;7.820;2023-05-10T17:54:07;99696.03;;;32.75
77331;BMP280;66405;48.328;7.820;2023-05-10T17:57:08;99687.63;;;32.50
77331;BMP280;66405;48.328;7.820;2023-05-10T18:00:09;99693.53;;;30.53